Aérodrome :
LOGIN :

S'inscrire | Disclaimer

   EN    FR    IT 

 










Légende :    VFR   VFR Marginal   IFR   IFR Intensif   IFR Très Intensif
Visi : 
Plafond : 
>= 8 km
>= 3000ft
5 à 8 km
1000 à 3000 ft
1500m à 5 km
500 à 1000 ft
800 à 1500m
200 à 500 ft
< 800m
< 200 ft
Symboles :   Orages  Brouillard  Fortes neiges  Fortes précipitations  Vent > 20 kt
SIGMETs :   Divers  Orages  Givrage  Turbulence  Onde Orograph.  Cendres Volcan.







- Altitude de l'aérodrome : 1416 ft
- Code IATA : ZRH


LSZH - Zurich

DERNIER METAR :
  • 272350Z VRB02KT 9999 FEW020 BKN110 17/14 Q1014 TEMPO RA

METARs EXPIRÉS :
  • 272320Z 30004KT 260V010 9999 -RA FEW026 BKN080 17/14 Q1013 TEMPO RA
  • 272250Z 25006KT 190V300 9999 -RA FEW030 SCT040 BKN085 18/15 Q1013 TEMPO RA
  • 272220Z VRB02KT 9999 -RA FEW030 SCT050 BKN085 17/15 Q1013 TEMPO RA
  • 272150Z VRB01KT 9999 -RA FEW060 BKN080 18/15 Q1012 TEMPO RA

TAF TAF LSZH
Valide du 28 à 00h jusqu'au 29 à 06h UTC


272325Z 2800/2906 24005KT 9999 FEW030 SCT040 BKN085 TX23/2815Z TN15/2804Z TN13/2904Z
PROB30
TEMPO 2800/2802 26012G25KT SHRA
PROB40
TEMPO 2810/2817 30010KT
BECMG 2817/2820 CAVOK
ATIS : +41 43 816 2295 (DEP) +41 43 816 2294 (ARR)
Pas de NOTAMs connus pour ce terrain.



MET'MAP, la Météo Aéronautique d'un coup d'oeil ! - Copyright ORBIFLY Décembre 2007 - Disclaimer

ORBIFLY MET'MAP TEAM :

Programmation & Développement : Alexandra Zaïnal
Conception & Développement : Baudouin d'Aumeries
Co-Programmation & Développement : Marc-Olivier Méhu
Soutien technique & logistique : Manuel Goepfert

Contact : metmap@orbifly.com




SOURCES & CREDITS :

   NOAA